Time;durP1;ratioP1;P1;durP2;ratioP2;P2;SDS_P1;SDS_P2;PMS_P1;PMS_P2;Temp;Humidity;BMP_temperature;BMP_pressure;BME280_temperature;BME280_humidity;BME280_pressure;Samples;Min_cycle;Max_cycle;Signal;HPM_P1;HPM_P2
2023/10/31 00:00:24;;;;;;;5.43;4.05;;;;;;;-145.87;100.00;54973.53;2091025;28;20044;-62
2023/10/31 00:01:25;;;;;;;8.35;4.70;;;;;;;-145.87;100.00;54973.53;2091214;28;20044;-63
2023/10/31 00:02:26;;;;;;;6.13;4.35;;;;;;;-145.87;100.00;54973.53;2091210;28;20093;-62
2023/10/31 00:03:28;;;;;;;4.95;3.03;;;;;;;-145.87;100.00;54973.53;2090895;28;20491;-62
2023/10/31 00:04:29;;;;;;;5.60;4.10;;;;;;;-145.87;100.00;54973.53;2091472;28;20041;-66
2023/10/31 00:05:30;;;;;;;5.55;4.07;;;;;;;-145.87;100.00;54973.53;2091630;28;20056;-64
2023/10/31 00:06:31;;;;;;;4.20;2.55;;;;;;;-145.87;100.00;54973.53;2092020;28;20071;-65
2023/10/31 00:07:32;;;;;;;6.03;4.13;;;;;;;-145.87;100.00;54973.53;2092025;28;20041;-62
2023/10/31 00:08:33;;;;;;;4.55;3.15;;;;;;;-145.87;100.00;54973.53;2092183;28;20047;-64
2023/10/31 00:09:34;;;;;;;6.47;3.67;;;;;;;-145.87;100.00;54973.53;2092099;28;20045;-62
2023/10/31 00:10:35;;;;;;;4.70;3.10;;;;;;;-145.87;100.00;54973.53;2092033;28;20374;-62
2023/10/31 00:11:37;;;;;;;4.32;2.90;;;;;;;-145.87;100.00;54973.53;2091321;28;20070;-61
2023/10/31 00:12:38;;;;;;;3.70;2.78;;;;;;;-145.87;100.00;54973.53;2091014;28;20041;-62
2023/10/31 00:13:39;;;;;;;5.82;3.10;;;;;;;-145.87;100.00;54973.53;2090874;28;20051;-62
2023/10/31 00:14:41;;;;;;;6.03;3.83;;;;;;;-145.87;100.00;54973.53;2090909;28;20044;-62
2023/10/31 00:15:42;;;;;;;4.20;3.28;;;;;;;-145.87;100.00;54973.53;2091086;28;20382;-62
2023/10/31 00:16:43;;;;;;;6.13;3.00;;;;;;;-145.87;100.00;54973.53;2091472;28;20048;-61
2023/10/31 00:17:44;;;;;;;3.85;2.45;;;;;;;-145.87;100.00;54973.53;2090927;28;20036;-62
2023/10/31 00:18:45;;;;;;;3.92;2.42;;;;;;;-145.87;100.00;54973.53;2090559;28;20041;-62
2023/10/31 00:19:46;;;;;;;3.72;2.40;;;;;;;-145.87;100.00;54973.53;2091164;28;20056;-62
2023/10/31 00:20:47;;;;;;;4.80;2.25;;;;;;;-145.87;100.00;54973.53;2090959;28;20037;-61
2023/10/31 00:21:48;;;;;;;2.70;1.80;;;;;;;-145.87;100.00;54973.53;2090859;28;20075;-61
2023/10/31 00:22:49;;;;;;;3.30;2.38;;;;;;;-145.87;100.00;54973.53;2090902;28;20040;-61
2023/10/31 00:23:51;;;;;;;3.30;2.20;;;;;;;-145.87;100.00;54973.53;2090793;28;20072;-62
2023/10/31 00:24:52;;;;;;;2.65;1.90;;;;;;;-145.87;100.00;54973.53;2090961;28;20041;-62
2023/10/31 00:25:53;;;;;;;3.92;2.28;;;;;;;-145.87;100.00;54973.53;2091224;28;20049;-62
2023/10/31 00:26:54;;;;;;;2.92;1.88;;;;;;;-145.87;100.00;54973.53;2091182;28;20053;-62
2023/10/31 00:27:55;;;;;;;3.20;2.10;;;;;;;-145.87;100.00;54973.53;2089969;28;20452;-63
2023/10/31 00:28:56;;;;;;;2.92;1.85;;;;;;;-145.87;100.00;54973.53;2090574;28;20045;-61
2023/10/31 00:29:57;;;;;;;1.58;0.82;;;;;;;-145.87;100.00;54973.53;2090147;28;20052;-62
2023/10/31 00:31:00;;;;;;;2.67;1.70;;;;;;;-145.87;100.00;54973.53;2090909;28;20049;-62
2023/10/31 00:32:01;;;;;;;3.08;1.23;;;;;;;-145.87;100.00;54973.53;2090162;28;20410;-61
2023/10/31 00:33:02;;;;;;;2.53;1.25;;;;;;;-145.87;100.00;54973.53;2089785;28;20528;-62
2023/10/31 00:34:03;;;;;;;1.58;1.23;;;;;;;-145.87;100.00;54973.53;2090798;28;20044;-61
2023/10/31 00:35:05;;;;;;;1.45;1.10;;;;;;;-145.87;100.00;54973.53;2090681;28;20067;-62
2023/10/31 00:36:07;;;;;;;1.52;0.93;;;;;;;-145.87;100.00;54973.53;2090638;28;20508;-63
2023/10/31 00:37:08;;;;;;;1.63;1.10;;;;;;;-145.87;100.00;54973.53;2090971;28;20036;-61
2023/10/31 00:38:09;;;;;;;1.30;0.70;;;;;;;-145.87;100.00;54973.53;2090806;28;20405;-62
2023/10/31 00:39:10;;;;;;;0.98;0.60;;;;;;;-145.87;100.00;54973.53;2090585;28;20051;-61
2023/10/31 00:40:12;;;;;;;1.83;0.95;;;;;;;-145.87;100.00;54973.53;2090676;28;20048;-62
2023/10/31 00:41:13;;;;;;;1.77;1.08;;;;;;;-145.87;100.00;54973.53;2090405;28;20044;-61
2023/10/31 00:42:14;;;;;;;0.95;0.65;;;;;;;-145.87;100.00;54973.53;2089901;28;20052;-62
2023/10/31 00:43:15;;;;;;;2.53;1.00;;;;;;;-145.87;100.00;54973.53;2082360;28;20049;-61
2023/10/31 00:44:16;;;;;;;1.63;1.15;;;;;;;-145.87;100.00;54973.53;2090216;28;20428;-62
2023/10/31 00:45:17;;;;;;;1.40;0.90;;;;;;;-145.87;100.00;54973.53;2090317;28;20057;-61
2023/10/31 00:46:19;;;;;;;1.35;1.00;;;;;;;-145.87;100.00;54973.53;2090177;28;20059;-62
2023/10/31 00:47:20;;;;;;;1.63;1.10;;;;;;;-145.87;100.00;54973.53;2091289;28;20049;-61
2023/10/31 00:48:21;;;;;;;1.70;0.90;;;;;;;-145.87;100.00;54973.53;2090586;28;20053;-61
2023/10/31 00:49:22;;;;;;;1.42;0.90;;;;;;;-145.87;100.00;54973.53;2090828;28;20045;-62
2023/10/31 00:50:23;;;;;;;1.80;0.73;;;;;;;-145.87;100.00;54973.53;2089125;28;20060;-61
2023/10/31 00:51:24;;;;;;;1.60;1.08;;;;;;;-145.87;100.00;54973.53;2090183;28;20537;-61
2023/10/31 00:52:25;;;;;;;2.00;0.75;;;;;;;-145.87;100.00;54973.53;2090196;28;20045;-62
2023/10/31 00:53:26;;;;;;;1.67;1.17;;;;;;;-145.87;100.00;54973.53;2090015;28;20052;-61
2023/10/31 00:54:27;;;;;;;0.75;0.60;;;;;;;-145.87;100.00;54973.53;2090040;28;20053;-61
2023/10/31 00:55:29;;;;;;;1.48;0.90;;;;;;;-145.87;100.00;54973.53;2090524;28;20060;-62
2023/10/31 00:56:30;;;;;;;1.08;0.75;;;;;;;-145.87;100.00;54973.53;2090668;28;20045;-61
2023/10/31 00:57:32;;;;;;;1.48;1.05;;;;;;;-145.87;100.00;54973.53;2089870;28;20056;-62
2023/10/31 00:58:33;;;;;;;1.55;1.00;;;;;;;-145.87;100.00;54973.53;2090161;28;20481;-61
2023/10/31 00:59:34;;;;;;;1.73;1.00;;;;;;;-145.87;100.00;54973.53;2090296;28;20052;-61
2023/10/31 01:00:37;;;;;;;1.30;1.00;;;;;;;-145.87;100.00;54973.53;2054066;28;1052886;-61
2023/10/31 01:01:38;;;;;;;1.55;1.17;;;;;;;-145.87;100.00;54973.53;2091088;28;20056;-62
2023/10/31 01:02:39;;;;;;;1.75;1.13;;;;;;;-145.87;100.00;54973.53;2090965;28;20041;-61
2023/10/31 01:03:41;;;;;;;2.83;1.02;;;;;;;-145.87;100.00;54973.53;2090376;28;20504;-61
2023/10/31 01:04:42;;;;;;;2.97;1.33;;;;;;;-145.87;100.00;54973.53;2090648;28;20041;-61
2023/10/31 01:05:43;;;;;;;1.17;1.00;;;;;;;-145.87;100.00;54973.53;2090310;28;20048;-60
2023/10/31 01:06:44;;;;;;;1.92;0.95;;;;;;;-145.87;100.00;54973.53;2090103;28;20052;-59
2023/10/31 01:07:45;;;;;;;1.73;0.93;;;;;;;-145.87;100.00;54973.53;2090882;28;20037;-59
2023/10/31 01:08:47;;;;;;;1.75;1.10;;;;;;;-145.87;100.00;54973.53;2090704;28;20056;-61
2023/10/31 01:09:48;;;;;;;1.92;1.00;;;;;;;-145.87;100.00;54973.53;2090369;28;20052;-61
2023/10/31 01:10:49;;;;;;;1.15;0.90;;;;;;;-145.87;100.00;54973.53;2090887;28;20037;-61
2023/10/31 01:11:50;;;;;;;1.48;1.00;;;;;;;-145.87;100.00;54973.53;2091073;28;20043;-61
2023/10/31 01:12:52;;;;;;;1.35;0.90;;;;;;;-145.87;100.00;54973.53;2090982;28;20041;-61
2023/10/31 01:13:53;;;;;;;1.50;0.80;;;;;;;-145.87;100.00;54973.53;2091019;28;20059;-61
2023/10/31 01:14:54;;;;;;;1.17;0.90;;;;;;;-145.87;100.00;54973.53;2090353;28;20044;-61
2023/10/31 01:15:55;;;;;;;1.30;0.90;;;;;;;-145.87;100.00;54973.53;2089889;28;20053;-61
2023/10/31 01:16:57;;;;;;;1.40;1.10;;;;;;;-145.87;100.00;54973.53;2089984;28;20509;-61
2023/10/31 01:17:58;;;;;;;2.03;1.15;;;;;;;-145.87;100.00;54973.53;2090057;28;20045;-61
2023/10/31 01:18:59;;;;;;;1.73;1.15;;;;;;;-145.87;100.00;54973.53;2090843;28;20044;-61
2023/10/31 01:20:00;;;;;;;0.90;0.70;;;;;;;-145.87;100.00;54973.53;2090645;28;20060;-61
2023/10/31 01:21:01;;;;;;;1.38;1.10;;;;;;;-145.87;100.00;54973.53;2090500;28;20060;-61
2023/10/31 01:22:02;;;;;;;1.52;1.05;;;;;;;-145.87;100.00;54973.53;2090302;28;20045;-61
2023/10/31 01:23:04;;;;;;;1.98;0.90;;;;;;;-145.87;100.00;54973.53;2090213;28;20421;-60
2023/10/31 01:24:05;;;;;;;1.17;0.75;;;;;;;-145.87;100.00;54973.53;2090565;28;20064;-61
2023/10/31 01:25:06;;;;;;;1.10;0.90;;;;;;;-145.87;100.00;54973.53;2090726;28;20505;-61
2023/10/31 01:26:07;;;;;;;1.50;1.20;;;;;;;-145.87;100.00;54973.53;2090748;28;20405;-60
2023/10/31 01:27:08;;;;;;;1.02;0.88;;;;;;;-145.87;100.00;54973.53;2090764;28;20056;-60
2023/10/31 01:28:10;;;;;;;0.95;0.40;;;;;;;-145.87;100.00;54973.53;2090863;28;20420;-61
2023/10/31 01:29:11;;;;;;;2.20;1.33;;;;;;;-145.87;100.00;54973.53;2090751;28;20049;-60
2023/10/31 01:30:13;;;;;;;2.58;0.90;;;;;;;-145.87;100.00;54973.53;2090115;28;20063;-59
2023/10/31 01:31:14;;;;;;;1.92;1.10;;;;;;;-145.87;100.00;54973.53;2090349;28;20481;-61
2023/10/31 01:32:15;;;;;;;2.47;1.02;;;;;;;-145.87;100.00;54973.53;2089123;28;20068;-60
2023/10/31 01:33:16;;;;;;;1.67;1.10;;;;;;;-145.87;100.00;54973.53;2090025;28;20053;-60
2023/10/31 01:34:18;;;;;;;1.50;0.80;;;;;;;-145.87;100.00;54973.53;2090368;28;20389;-61
2023/10/31 01:35:19;;;;;;;1.00;0.80;;;;;;;-145.87;100.00;54973.53;2090651;28;20056;-60
2023/10/31 01:36:26;;;;;;;1.40;1.08;;;;;;;-145.87;100.00;54973.53;2089878;28;20057;-60
2023/10/31 01:37:27;;;;;;;2.17;1.00;;;;;;;-145.87;100.00;54973.53;2090097;28;20053;-61
2023/10/31 01:38:29;;;;;;;1.00;0.85;;;;;;;-145.87;100.00;54973.53;2090448;28;20045;-61
2023/10/31 01:39:30;;;;;;;1.98;1.10;;;;;;;-145.87;100.00;54973.53;2090657;28;20055;-59
2023/10/31 01:40:31;;;;;;;3.60;1.00;;;;;;;-145.87;100.00;54973.53;2090731;28;20075;-59
2023/10/31 01:41:32;;;;;;;1.33;0.88;;;;;;;-145.87;100.00;54973.53;2090719;28;20036;-60
2023/10/31 01:42:34;;;;;;;1.23;0.88;;;;;;;-145.87;100.00;54973.53;2081625;28;20054;-60
2023/10/31 01:43:36;;;;;;;1.63;1.00;;;;;;;-145.87;100.00;54973.53;2081889;28;20049;-61
2023/10/31 01:44:37;;;;;;;2.22;1.08;;;;;;;-145.87;100.00;54973.53;2090729;28;20480;-61
2023/10/31 01:45:38;;;;;;;1.33;0.90;;;;;;;-145.87;100.00;54973.53;2090649;28;20045;-61
2023/10/31 01:46:39;;;;;;;1.15;0.90;;;;;;;-145.87;100.00;54973.53;2090630;28;20039;-59
2023/10/31 01:47:40;;;;;;;0.80;0.60;;;;;;;-145.87;100.00;54973.53;2090641;28;20048;-59
2023/10/31 01:48:42;;;;;;;0.45;0.45;;;;;;;-145.87;100.00;54973.53;2090160;28;20469;-58
2023/10/31 01:49:43;;;;;;;3.30;1.00;;;;;;;-145.87;100.00;54973.53;2090192;28;20044;-59
2023/10/31 01:50:45;;;;;;;1.80;0.98;;;;;;;-145.87;100.00;54973.53;2090047;28;20045;-60
2023/10/31 01:51:46;;;;;;;2.65;1.10;;;;;;;-145.87;100.00;54973.53;2090728;28;20044;-59
2023/10/31 01:52:47;;;;;;;2.55;0.80;;;;;;;-145.87;100.00;54973.53;2073362;28;20072;-61
2023/10/31 01:53:49;;;;;;;1.25;0.80;;;;;;;-145.87;100.00;54973.53;2065671;28;20495;-61
2023/10/31 01:54:50;;;;;;;1.60;0.85;;;;;;;-145.87;100.00;54973.53;2081677;28;20050;-59
2023/10/31 01:55:51;;;;;;;1.65;0.80;;;;;;;-145.87;100.00;54973.53;2081795;28;20060;-61
2023/10/31 01:56:56;;;;;;;1.27;0.82;;;;;;;-145.87;100.00;54973.53;2090028;28;20037;-62
2023/10/31 01:57:57;;;;;;;1.98;0.90;;;;;;;-145.87;100.00;54973.53;2089867;28;20527;-61
2023/10/31 01:58:58;;;;;;;2.97;1.20;;;;;;;-145.87;100.00;54973.53;2081877;28;20056;-62
2023/10/31 01:59:59;;;;;;;1.55;1.00;;;;;;;-145.87;100.00;54973.53;2089925;28;20062;-61
2023/10/31 02:01:00;;;;;;;2.08;1.05;;;;;;;-145.87;100.00;54973.53;2081872;28;20061;-59
2023/10/31 02:02:01;;;;;;;1.33;0.70;;;;;;;-145.87;100.00;54973.53;2081735;28;20056;-61
2023/10/31 02:03:04;;;;;;;0.82;0.75;;;;;;;-145.87;100.00;54973.53;2090001;28;20408;-59
2023/10/31 02:04:05;;;;;;;1.92;0.70;;;;;;;-145.87;100.00;54973.53;2081989;28;20064;-59
2023/10/31 02:05:06;;;;;;;1.30;0.70;;;;;;;-145.87;100.00;54973.53;2081500;28;20049;-59
2023/10/31 02:06:08;;;;;;;0.75;0.57;;;;;;;-145.87;100.00;54973.53;2082008;28;20058;-61
2023/10/31 02:07:09;;;;;;;3.28;0.85;;;;;;;-145.87;100.00;54973.53;2089930;28;20052;-60
2023/10/31 02:08:10;;;;;;;1.83;0.90;;;;;;;-145.87;100.00;54973.53;2090359;28;20053;-60
2023/10/31 02:09:11;;;;;;;1.40;0.90;;;;;;;-145.87;100.00;54973.53;2090540;28;20051;-60
2023/10/31 02:10:12;;;;;;;1.75;0.88;;;;;;;-145.87;100.00;54973.53;2090110;28;20528;-60
2023/10/31 02:11:13;;;;;;;1.40;0.75;;;;;;;-145.87;100.00;54973.53;2090206;28;20095;-60
2023/10/31 02:12:36;;;;;;;1.00;0.70;;;;;;;-145.87;100.00;54973.53;2089896;28;20052;-60
2023/10/31 02:13:37;;;;;;;1.50;0.88;;;;;;;-145.87;100.00;54973.53;2090282;28;20484;-60
2023/10/31 02:14:38;;;;;;;1.05;0.75;;;;;;;-145.87;100.00;54973.53;2089127;28;20524;-60
2023/10/31 02:15:40;;;;;;;0.52;0.50;;;;;;;-145.87;100.00;54973.53;2081663;28;20042;-60
2023/10/31 02:16:41;;;;;;;2.13;0.80;;;;;;;-145.87;100.00;54973.53;2081821;28;20112;-60
2023/10/31 02:17:42;;;;;;;1.23;0.80;;;;;;;-145.87;100.00;54973.53;2081817;28;20513;-60
2023/10/31 02:18:43;;;;;;;0.90;0.60;;;;;;;-145.87;100.00;54973.53;2089890;28;20039;-60
2023/10/31 02:19:44;;;;;;;2.40;0.90;;;;;;;-145.87;100.00;54973.53;2089928;28;20041;-59
2023/10/31 02:20:45;;;;;;;1.40;0.90;;;;;;;-145.87;100.00;54973.53;2089826;28;20055;-59
2023/10/31 02:21:46;;;;;;;1.48;0.80;;;;;;;-145.87;100.00;54973.53;2090396;28;20481;-60
2023/10/31 02:22:47;;;;;;;1.77;1.00;;;;;;;-145.87;100.00;54973.53;2090069;28;20045;-60
2023/10/31 02:23:59;;;;;;;1.52;0.93;;;;;;;-145.87;100.00;54973.53;2089009;28;20505;-59
2023/10/31 02:25:00;;;;;;;0.90;0.70;;;;;;;-145.87;100.00;54973.53;2089766;28;20386;-60
2023/10/31 02:26:02;;;;;;;3.17;0.98;;;;;;;-145.87;100.00;54973.53;2090487;28;20041;-60
2023/10/31 02:27:03;;;;;;;1.17;0.82;;;;;;;-145.87;100.00;54973.53;2090663;28;20044;-60
2023/10/31 02:28:04;;;;;;;0.85;0.50;;;;;;;-145.87;100.00;54973.53;2089381;28;20053;-60
2023/10/31 02:29:06;;;;;;;1.40;0.70;;;;;;;-145.87;100.00;54973.53;2089786;28;20496;-60
2023/10/31 02:30:08;;;;;;;1.27;0.85;;;;;;;-145.87;100.00;54973.53;2090625;28;20056;-60
2023/10/31 02:31:09;;;;;;;1.20;0.80;;;;;;;-145.87;100.00;54973.53;2089710;28;20045;-59
2023/10/31 02:32:10;;;;;;;2.67;1.00;;;;;;;-145.87;100.00;54973.53;2089645;28;20400;-60
2023/10/31 02:33:11;;;;;;;1.38;0.82;;;;;;;-145.87;100.00;54973.53;2089699;28;20049;-60
2023/10/31 02:34:13;;;;;;;2.00;1.05;;;;;;;-145.87;100.00;54973.53;2089444;28;20060;-60
2023/10/31 02:35:16;;;;;;;1.33;0.82;;;;;;;-145.87;100.00;54973.53;2089536;28;20049;-59
2023/10/31 02:36:18;;;;;;;1.02;0.77;;;;;;;-145.87;100.00;54973.53;2089116;28;20045;-60
2023/10/31 02:37:19;;;;;;;2.03;0.82;;;;;;;-145.87;100.00;54973.53;2089499;28;20061;-60
2023/10/31 02:38:20;;;;;;;1.48;1.00;;;;;;;-145.87;100.00;54973.53;2089994;28;20535;-59
2023/10/31 02:39:21;;;;;;;1.77;1.10;;;;;;;-145.87;100.00;54973.53;2090208;28;20045;-59
2023/10/31 02:40:22;;;;;;;1.08;0.80;;;;;;;-145.87;100.00;54973.53;2089788;28;20056;-60
2023/10/31 02:41:23;;;;;;;3.60;1.00;;;;;;;-145.87;100.00;54973.53;2089974;28;20059;-59
2023/10/31 02:42:25;;;;;;;1.95;1.00;;;;;;;-145.87;100.00;54973.53;2090244;28;20037;-60
2023/10/31 02:43:26;;;;;;;1.65;1.05;;;;;;;-145.87;100.00;54973.53;2090393;28;20093;-59
2023/10/31 02:44:27;;;;;;;2.03;1.10;;;;;;;-145.87;100.00;54973.53;2090208;28;20057;-59
2023/10/31 02:45:28;;;;;;;2.95;0.90;;;;;;;-145.87;100.00;54973.53;2090305;28;20052;-59
2023/10/31 02:46:29;;;;;;;2.42;1.05;;;;;;;-145.87;100.00;54973.53;2089322;28;20508;-59
2023/10/31 02:47:30;;;;;;;0.95;0.73;;;;;;;-145.87;100.00;54973.53;2089620;28;20053;-60
2023/10/31 02:48:37;;;;;;;2.25;1.08;;;;;;;-145.87;100.00;54973.53;2090358;28;20044;-60
2023/10/31 02:49:39;;;;;;;0.95;0.80;;;;;;;-145.87;100.00;54973.53;2090266;28;20044;-59
2023/10/31 02:50:40;;;;;;;2.17;1.17;;;;;;;-145.87;100.00;54973.53;2089840;28;20472;-59
2023/10/31 02:51:42;;;;;;;1.85;1.00;;;;;;;-145.87;100.00;54973.53;2089277;28;20053;-59
2023/10/31 02:52:44;;;;;;;1.45;1.00;;;;;;;-145.87;100.00;54973.53;2089369;28;20052;-59
2023/10/31 02:53:45;;;;;;;1.95;1.13;;;;;;;-145.87;100.00;54973.53;2092437;28;20045;-60
2023/10/31 02:54:46;;;;;;;0.45;0.43;;;;;;;-145.87;100.00;54973.53;2089121;28;20053;-60
2023/10/31 02:55:47;;;;;;;1.02;0.80;;;;;;;-145.87;100.00;54973.53;2089877;28;20052;-59
2023/10/31 02:56:48;;;;;;;1.27;0.93;;;;;;;-145.87;100.00;54973.53;2090317;28;20044;-59
2023/10/31 02:57:49;;;;;;;1.48;0.65;;;;;;;-145.87;100.00;54973.53;2089705;28;20045;-60
2023/10/31 02:58:50;;;;;;;2.90;1.23;;;;;;;-145.87;100.00;54973.53;2089531;28;20424;-59
2023/10/31 02:59:51;;;;;;;1.20;0.80;;;;;;;-145.87;100.00;54973.53;2098111;28;20036;-60
2023/10/31 03:00:52;;;;;;;1.55;0.90;;;;;;;-145.87;100.00;54973.53;2097709;28;20049;-59
2023/10/31 03:01:55;;;;;;;1.50;1.00;;;;;;;-145.87;100.00;54973.53;2090552;28;20068;-58
2023/10/31 03:02:56;;;;;;;1.85;0.90;;;;;;;-145.87;100.00;54973.53;2090143;28;20048;-59
2023/10/31 03:03:57;;;;;;;1.40;0.88;;;;;;;-145.87;100.00;54973.53;2090296;28;20404;-59
2023/10/31 03:04:58;;;;;;;2.53;1.35;;;;;;;-145.87;100.00;54973.53;2090114;28;20053;-58
2023/10/31 03:06:00;;;;;;;1.10;0.90;;;;;;;-145.87;100.00;54973.53;2089562;28;20057;-59
2023/10/31 03:07:01;;;;;;;1.45;0.95;;;;;;;-145.87;100.00;54973.53;2089318;28;20079;-59
2023/10/31 03:08:02;;;;;;;1.27;0.80;;;;;;;-145.87;100.00;54973.53;2081294;28;20053;-59
2023/10/31 03:09:03;;;;;;;1.58;0.90;;;;;;;-145.87;100.00;54973.53;2081402;28;20045;-59
2023/10/31 03:10:05;;;;;;;1.17;1.00;;;;;;;-145.87;100.00;54973.53;2097607;28;20064;-58
2023/10/31 03:11:06;;;;;;;2.10;0.90;;;;;;;-145.87;100.00;54973.53;2090143;28;20515;-59
2023/10/31 03:12:07;;;;;;;2.65;1.00;;;;;;;-145.87;100.00;54973.53;2089819;28;20068;-58
2023/10/31 03:13:08;;;;;;;3.50;1.08;;;;;;;-145.87;100.00;54973.53;2090051;28;20064;-59
2023/10/31 03:14:09;;;;;;;1.30;1.00;;;;;;;-145.87;100.00;54973.53;2090183;28;20053;-59
2023/10/31 03:15:11;;;;;;;1.73;0.98;;;;;;;-145.87;100.00;54973.53;2090052;28;20477;-58
2023/10/31 03:16:14;;;;;;;1.42;0.88;;;;;;;-145.87;100.00;54973.53;2089531;28;20051;-58
2023/10/31 03:17:15;;;;;;;2.30;1.15;;;;;;;-145.87;100.00;54973.53;2089463;28;20052;-59
2023/10/31 03:18:16;;;;;;;1.70;1.10;;;;;;;-145.87;100.00;54973.53;2090230;28;20049;-58
2023/10/31 03:19:17;;;;;;;1.60;1.00;;;;;;;-145.87;100.00;54973.53;2089615;28;20056;-58
2023/10/31 03:20:18;;;;;;;1.42;0.90;;;;;;;-145.87;100.00;54973.53;2081402;28;20452;-58
2023/10/31 03:21:19;;;;;;;1.98;1.23;;;;;;;-145.87;100.00;54973.53;2089551;28;20041;-58
2023/10/31 03:22:20;;;;;;;1.50;1.00;;;;;;;-145.87;100.00;54973.53;2090010;28;20057;-58
2023/10/31 03:23:21;;;;;;;1.48;1.13;;;;;;;-145.87;100.00;54973.53;2089779;28;20076;-58
2023/10/31 03:24:23;;;;;;;1.42;0.73;;;;;;;-145.87;100.00;54973.53;2090102;28;20057;-59
2023/10/31 03:25:24;;;;;;;1.42;0.90;;;;;;;-145.87;100.00;54973.53;2088995;28;20505;-58
2023/10/31 03:26:25;;;;;;;3.95;1.20;;;;;;;-145.87;100.00;54973.53;2089477;28;20108;-57
2023/10/31 03:27:26;;;;;;;1.77;1.05;;;;;;;-145.87;100.00;54973.53;2090250;28;20061;-58
2023/10/31 03:28:27;;;;;;;1.58;1.02;;;;;;;-145.87;100.00;54973.53;2089762;28;20061;-58
2023/10/31 03:29:28;;;;;;;1.23;0.90;;;;;;;-145.87;100.00;54973.53;2089272;28;20040;-58
2023/10/31 03:30:30;;;;;;;1.27;0.82;;;;;;;-145.87;100.00;54973.53;2089152;28;20052;-58
2023/10/31 03:31:31;;;;;;;1.58;0.85;;;;;;;-145.87;100.00;54973.53;2090042;28;20421;-58
2023/10/31 03:32:32;;;;;;;2.13;1.30;;;;;;;-145.87;100.00;54973.53;2088981;28;20060;-57
2023/10/31 03:33:33;;;;;;;1.58;1.00;;;;;;;-145.87;100.00;54973.53;2089220;28;20044;-58
2023/10/31 03:34:34;;;;;;;1.27;1.00;;;;;;;-145.87;100.00;54973.53;2089270;28;20048;-58
2023/10/31 03:35:35;;;;;;;1.05;0.80;;;;;;;-145.87;100.00;54973.53;2088816;28;20053;-58
2023/10/31 03:36:36;;;;;;;1.75;1.00;;;;;;;-145.87;100.00;54973.53;2089399;28;20449;-58
2023/10/31 03:37:41;;;;;;;1.42;0.88;;;;;;;-145.87;100.00;54973.53;2089248;28;20060;-58
2023/10/31 03:38:42;;;;;;;3.42;1.10;;;;;;;-145.87;100.00;54973.53;2090383;28;20051;-58
2023/10/31 03:39:43;;;;;;;4.18;1.00;;;;;;;-145.87;100.00;54973.53;2090427;28;20075;-57
2023/10/31 03:40:44;;;;;;;1.33;1.02;;;;;;;-145.87;100.00;54973.53;2091275;28;20123;-58
2023/10/31 03:41:47;;;;;;;1.30;1.10;;;;;;;-145.87;100.00;54973.53;2091183;28;20044;-60
2023/10/31 03:42:48;;;;;;;1.48;0.73;;;;;;;-145.87;100.00;54973.53;2091589;28;20049;-58
2023/10/31 03:43:49;;;;;;;0.70;0.52;;;;;;;-145.87;100.00;54973.53;2090811;28;20052;-58
2023/10/31 03:44:50;;;;;;;3.03;1.00;;;;;;;-145.87;100.00;54973.53;2082438;28;20045;-58
2023/10/31 03:45:51;;;;;;;0.90;0.70;;;;;;;-145.87;100.00;54973.53;2082198;28;20502;-57
2023/10/31 03:46:52;;;;;;;1.33;0.65;;;;;;;-145.87;100.00;54973.53;2090276;28;20060;-58
2023/10/31 03:47:53;;;;;;;1.48;0.90;;;;;;;-145.87;100.00;54973.53;2089668;28;20052;-57
2023/10/31 03:48:55;;;;;;;2.55;0.90;;;;;;;-145.87;100.00;54973.53;2089369;28;20406;-57
2023/10/31 03:49:56;;;;;;;1.15;0.80;;;;;;;-145.87;100.00;54973.53;2089343;28;20060;-57
2023/10/31 03:50:57;;;;;;;2.47;1.13;;;;;;;-145.87;100.00;54973.53;2089251;28;20076;-58
2023/10/31 03:51:58;;;;;;;1.27;0.85;;;;;;;-145.87;100.00;54973.53;2089040;28;20057;-58
2023/10/31 03:52:59;;;;;;;1.10;0.70;;;;;;;-145.87;100.00;54973.53;2088961;28;20048;-58
2023/10/31 03:54:00;;;;;;;1.10;0.80;;;;;;;-145.87;100.00;54973.53;2090244;28;20048;-58
2023/10/31 03:55:02;;;;;;;1.13;0.70;;;;;;;-145.87;100.00;54973.53;2090845;28;20053;-58
2023/10/31 03:56:03;;;;;;;2.22;0.98;;;;;;;-145.87;100.00;54973.53;2090904;28;20040;-57
2023/10/31 03:57:05;;;;;;;1.52;1.00;;;;;;;-145.87;100.00;54973.53;2091263;28;20057;-59
2023/10/31 03:58:06;;;;;;;1.63;0.70;;;;;;;-145.87;100.00;54973.53;2091450;28;20040;-57
2023/10/31 03:59:07;;;;;;;0.55;0.52;;;;;;;-145.87;100.00;54973.53;2091514;28;20608;-58
2023/10/31 04:00:09;;;;;;;2.83;0.70;;;;;;;-145.87;100.00;54973.53;2090894;28;20049;-58
2023/10/31 04:01:14;;;;;;;1.63;0.73;;;;;;;-145.87;100.00;54973.53;2091783;28;20127;-58
2023/10/31 04:02:15;;;;;;;1.17;0.70;;;;;;;-145.87;100.00;54973.53;2091398;28;20044;-58
2023/10/31 04:03:16;;;;;;;1.80;0.77;;;;;;;-145.87;100.00;54973.53;2091043;28;20425;-58
2023/10/31 04:04:18;;;;;;;1.17;0.70;;;;;;;-145.87;100.00;54973.53;2082590;28;20056;-58
2023/10/31 04:05:19;;;;;;;0.73;0.70;;;;;;;-145.87;100.00;54973.53;2090857;28;20041;-58
2023/10/31 04:06:20;;;;;;;1.50;0.90;;;;;;;-145.87;100.00;54973.53;2090092;28;20393;-57
2023/10/31 04:07:21;;;;;;;1.20;0.70;;;;;;;-145.87;100.00;54973.53;2090523;28;20052;-58
2023/10/31 04:08:22;;;;;;;3.13;0.98;;;;;;;-145.87;100.00;54973.53;2091298;28;20057;-57
2023/10/31 04:09:23;;;;;;;1.70;0.90;;;;;;;-145.87;100.00;54973.53;2090705;28;20056;-57
2023/10/31 04:10:25;;;;;;;2.58;1.00;;;;;;;-145.87;100.00;54973.53;2091163;28;20053;-57
2023/10/31 04:11:26;;;;;;;2.95;0.80;;;;;;;-145.87;100.00;54973.53;2090376;28;20405;-57
2023/10/31 04:12:27;;;;;;;1.50;0.90;;;;;;;-145.87;100.00;54973.53;2090817;28;20053;-57
2023/10/31 04:13:28;;;;;;;0.73;0.52;;;;;;;-145.87;100.00;54973.53;2091279;28;20048;-61
2023/10/31 04:14:29;;;;;;;1.70;0.73;;;;;;;-145.87;100.00;54973.53;2091037;28;20057;-57
2023/10/31 04:15:30;;;;;;;2.20;0.90;;;;;;;-145.87;100.00;54973.53;2091266;28;20049;-58
2023/10/31 04:16:31;;;;;;;1.63;0.50;;;;;;;-145.87;100.00;54973.53;2091475;28;20048;-58
2023/10/31 04:17:33;;;;;;;4.15;0.70;;;;;;;-145.87;100.00;54973.53;2090948;28;20404;-58
2023/10/31 04:18:34;;;;;;;1.40;0.70;;;;;;;-145.87;100.00;54973.53;2091533;28;20053;-57
2023/10/31 04:19:36;;;;;;;1.40;0.80;;;;;;;-145.87;100.00;54973.53;2091427;28;20056;-58
2023/10/31 04:20:37;;;;;;;1.95;0.80;;;;;;;-145.87;100.00;54973.53;2091290;28;20049;-58
2023/10/31 04:21:38;;;;;;;1.65;0.90;;;;;;;-145.87;100.00;54973.53;2091397;28;20064;-57
2023/10/31 04:22:39;;;;;;;1.73;0.63;;;;;;;-145.87;100.00;54973.53;2090841;28;20045;-58
2023/10/31 04:23:40;;;;;;;2.42;1.02;;;;;;;-145.87;100.00;54973.53;2091464;28;20040;-58
2023/10/31 04:24:41;;;;;;;1.63;0.73;;;;;;;-145.87;100.00;54973.53;2091286;28;20037;-58
2023/10/31 04:25:43;;;;;;;3.42;0.90;;;;;;;-145.87;100.00;54973.53;2091218;28;20037;-57
2023/10/31 04:26:44;;;;;;;2.10;0.90;;;;;;;-145.87;100.00;54973.53;2091624;28;20409;-57
2023/10/31 04:27:45;;;;;;;1.60;0.60;;;;;;;-145.87;100.00;54973.53;2091518;28;20044;-57
2023/10/31 04:28:46;;;;;;;2.58;0.80;;;;;;;-145.87;100.00;54973.53;2091342;28;20041;-57
2023/10/31 04:29:47;;;;;;;2.78;0.63;;;;;;;-145.87;100.00;54973.53;2091128;28;20516;-58
2023/10/31 04:30:49;;;;;;;2.53;0.73;;;;;;;-145.87;100.00;54973.53;2091496;28;20481;-58
2023/10/31 04:31:50;;;;;;;1.35;0.80;;;;;;;-145.87;100.00;54973.53;2091650;28;20056;-57
2023/10/31 04:32:51;;;;;;;2.97;0.70;;;;;;;-145.87;100.00;54973.53;2091352;28;20045;-58
2023/10/31 04:33:52;;;;;;;1.58;0.80;;;;;;;-145.87;100.00;54973.53;2091389;28;20060;-57
2023/10/31 04:34:53;;;;;;;1.42;0.73;;;;;;;-145.87;100.00;54973.53;2091272;28;20060;-57
2023/10/31 04:35:54;;;;;;;1.23;0.60;;;;;;;-145.87;100.00;54973.53;2091468;28;20401;-58
2023/10/31 04:36:55;;;;;;;3.05;0.80;;;;;;;-145.87;100.00;54973.53;2091864;28;20057;-58
2023/10/31 04:37:56;;;;;;;3.35;0.80;;;;;;;-145.87;100.00;54973.53;2091219;28;20068;-58
2023/10/31 04:38:58;;;;;;;3.72;1.00;;;;;;;-145.87;100.00;54973.53;2091084;28;20040;-57